Time;durP1;ratioP1;P1;durP2;ratioP2;P2;SDS_P1;SDS_P2;PMS_P1;PMS_P2;Temp;Humidity;BMP_temperature;BMP_pressure;BME280_temperature;BME280_humidity;BME280_pressure;Samples;Min_cycle;Max_cycle;Signal;HPM_P1;HPM_P2
2023/03/06 00:00:53;;;;;;;3.55;2.50;;;3.50;99.90;;;;;;5054228;28;20072;-72
2023/03/06 00:03:19;;;;;;;6.63;4.05;;;3.60;99.90;;;;;;5052731;28;20033;-72
2023/03/06 00:05:45;;;;;;;8.13;4.68;;;3.50;99.90;;;;;;5054064;28;20029;-74
2023/03/06 00:08:11;;;;;;;12.68;4.78;;;3.50;99.90;;;;;;5053911;28;20025;-73
2023/03/06 00:10:37;;;;;;;4.13;3.03;;;3.60;99.90;;;;;;5053656;28;20378;-72
2023/03/06 00:13:05;;;;;;;9.25;3.80;;;3.60;99.90;;;;;;5053714;28;20040;-74
2023/03/06 00:15:31;;;;;;;7.60;4.32;;;3.70;99.90;;;;;;5053896;28;20079;-73
2023/03/06 00:17:58;;;;;;;11.02;5.65;;;3.60;99.90;;;;;;5053649;28;20033;-73
2023/03/06 00:20:25;;;;;;;4.95;1.10;;;3.60;99.90;;;;;;5053566;28;20047;-73
2023/03/06 00:22:51;;;;;;;22.75;9.77;;;3.70;99.90;;;;;;5054226;28;20115;-73
2023/03/06 00:25:19;;;;;;;5.60;2.83;;;3.60;99.90;;;;;;5053260;28;20469;-73
2023/03/06 00:27:45;;;;;;;2.33;1.48;;;3.60;99.90;;;;;;5052466;28;20043;-73
2023/03/06 00:30:14;;;;;;;5.05;3.45;;;3.70;99.90;;;;;;5053253;28;20040;-73
2023/03/06 00:32:41;;;;;;;6.80;3.17;;;3.70;99.90;;;;;;5053678;28;20060;-73
2023/03/06 00:35:07;;;;;;;1.95;1.85;;;3.60;99.90;;;;;;5053408;28;20456;-73
2023/03/06 00:37:33;;;;;;;2.60;1.23;;;3.80;99.90;;;;;;5053638;28;20049;-72
2023/03/06 00:39:59;;;;;;;3.88;2.33;;;3.60;99.90;;;;;;5051639;28;20047;-73
2023/03/06 00:42:25;;;;;;;3.78;2.55;;;3.60;99.90;;;;;;5035418;28;20100;-73
2023/03/06 00:44:51;;;;;;;2.80;2.60;;;3.70;99.90;;;;;;5052088;28;20036;-73
2023/03/06 00:47:17;;;;;;;1.08;0.98;;;3.50;99.90;;;;;;5053245;28;20104;-73
2023/03/06 00:49:43;;;;;;;1.42;1.35;;;3.60;99.90;;;;;;5053453;28;20021;-73
2023/03/06 00:52:10;;;;;;;5.22;4.18;;;3.60;99.90;;;;;;5053169;28;20502;-73
2023/03/06 00:54:37;;;;;;;6.18;3.90;;;3.70;99.90;;;;;;5052687;28;20044;-72
2023/03/06 00:57:03;;;;;;;1.35;1.25;;;3.60;99.90;;;;;;5085310;28;20017;-73
2023/03/06 00:59:29;;;;;;;4.18;3.22;;;3.60;99.90;;;;;;5085097;28;20120;-73
2023/03/06 01:01:55;;;;;;;0.40;0.40;;;3.70;99.90;;;;;;5051762;28;20115;-73
2023/03/06 01:04:21;;;;;;;0.70;0.63;;;3.80;99.90;;;;;;5052821;28;20025;-72
2023/03/06 01:06:47;;;;;;;0.75;0.75;;;4.10;99.90;;;;;;5051437;28;20009;-72
2023/03/06 01:09:13;;;;;;;0.38;0.38;;;4.20;99.90;;;;;;5051563;28;20035;-73
2023/03/06 01:11:39;;;;;;;3.75;1.60;;;4.40;99.90;;;;;;5085058;28;20028;-73
2023/03/06 01:14:06;;;;;;;0.95;0.95;;;4.40;99.90;;;;;;5052861;28;20037;-73
2023/03/06 01:16:31;;;;;;;2.65;1.25;;;4.20;99.90;;;;;;5051428;28;20381;-73
2023/03/06 01:18:57;;;;;;;0.10;0.10;;;4.30;99.90;;;;;;5051586;28;20028;-73
2023/03/06 01:21:23;;;;;;;2.40;2.28;;;4.30;99.90;;;;;;5052693;28;20029;-72
2023/03/06 01:23:50;;;;;;;3.28;2.78;;;4.60;99.90;;;;;;5052282;28;20021;-73
2023/03/06 01:26:16;;;;;;;7.43;0.95;;;4.10;99.90;;;;;;5084938;28;20040;-72
2023/03/06 01:28:42;;;;;;;2.60;1.38;;;4.20;99.90;;;;;;5050905;28;20025;-72
2023/03/06 01:31:08;;;;;;;0.10;0.10;;;4.10;99.90;;;;;;5051187;28;20052;-73
2023/03/06 01:33:35;;;;;;;0.82;0.47;;;4.40;99.90;;;;;;5052524;28;20083;-72
2023/03/06 01:36:10;;;;;;;1.85;1.17;;;4.20;99.90;;;;;;5037171;28;20532;-73
2023/03/06 01:38:36;;;;;;;12.68;6.78;;;4.10;99.90;;;;;;5052212;28;20029;-73
2023/03/06 01:41:02;;;;;;;1.45;1.35;;;3.80;99.90;;;;;;5065014;28;20027;-73
2023/03/06 01:43:34;;;;;;;3.00;2.38;;;3.80;99.90;;;;;;5052525;28;20028;-73
2023/03/06 01:46:24;;;;;;;1.33;1.25;;;3.80;99.90;;;;;;5052411;28;20044;-73
2023/03/06 01:49:10;;;;;;;12.23;4.25;;;4.00;99.90;;;;;;5052467;28;20017;-74
2023/03/06 01:51:52;;;;;;;2.83;2.10;;;3.90;99.90;;;;;;5041848;28;20033;-73
2023/03/06 01:54:25;;;;;;;4.57;3.25;;;3.70;99.90;;;;;;5061675;28;20067;-74
2023/03/06 01:56:59;;;;;;;12.68;7.55;;;3.70;99.90;;;;;;5054780;28;20026;-74
2023/03/06 01:59:27;;;;;;;0.85;0.85;;;3.60;99.90;;;;;;5049737;28;20500;-73
2023/03/06 02:01:54;;;;;;;15.48;4.63;;;3.60;99.90;;;;;;5052459;28;20604;-74
2023/03/06 02:04:20;;;;;;;10.05;4.00;;;3.60;99.90;;;;;;5052521;28;20390;-73
2023/03/06 02:06:47;;;;;;;0.82;0.82;;;3.60;99.90;;;;;;5052051;28;20024;-73
2023/03/06 02:09:13;;;;;;;0.47;0.47;;;3.60;99.90;;;;;;5084606;28;20380;-73
2023/03/06 02:11:42;;;;;;;2.65;1.90;;;3.60;99.90;;;;;;5051113;28;20036;-74
2023/03/06 02:14:11;;;;;;;0.68;0.68;;;3.70;99.90;;;;;;5050952;28;20061;-73
2023/03/06 02:16:38;;;;;;;27.17;8.65;;;3.80;99.90;;;;;;5050751;28;20100;-74
2023/03/06 02:19:07;;;;;;;7.78;4.18;;;3.60;99.90;;;;;;5054158;28;20179;-73
2023/03/06 02:21:36;;;;;;;6.45;4.05;;;3.60;99.90;;;;;;5055443;28;20491;-73
2023/03/06 02:24:18;;;;;;;3.55;3.22;;;3.60;99.90;;;;;;5054758;28;20025;-74
2023/03/06 02:26:46;;;;;;;11.98;3.70;;;3.60;99.90;;;;;;5055676;28;20068;-74
2023/03/06 02:29:17;;;;;;;5.78;1.95;;;3.60;99.90;;;;;;5088442;28;20044;-73
2023/03/06 02:31:42;;;;;;;6.68;2.13;;;3.60;99.90;;;;;;5054354;28;20028;-74
2023/03/06 02:34:14;;;;;;;11.55;7.10;;;3.50;99.90;;;;;;5054562;28;20470;-73
2023/03/06 02:37:05;;;;;;;12.95;7.18;;;3.50;99.90;;;;;;5053954;28;20101;-73
2023/03/06 02:39:34;;;;;;;9.23;4.53;;;3.50;99.90;;;;;;5045450;28;20120;-75
2023/03/06 02:42:00;;;;;;;7.18;3.35;;;3.60;99.90;;;;;;5084282;28;20021;-75
2023/03/06 02:44:31;;;;;;;4.70;3.40;;;3.60;99.90;;;;;;5054456;28;20028;-74
2023/03/06 02:46:57;;;;;;;0.60;0.60;;;3.60;99.90;;;;;;5040094;28;20021;-74
2023/03/06 02:49:24;;;;;;;7.80;2.58;;;3.80;99.90;;;;;;5054248;28;20073;-73
2023/03/06 02:51:50;;;;;;;5.85;1.42;;;3.70;99.90;;;;;;5054225;28;20501;-73
2023/03/06 02:54:19;;;;;;;10.13;5.68;;;3.70;99.90;;;;;;5054229;28;20074;-73
2023/03/06 02:56:45;;;;;;;5.03;4.25;;;3.70;99.90;;;;;;5054224;28;20072;-73
2023/03/06 02:59:11;;;;;;;20.95;8.35;;;3.70;99.90;;;;;;5054026;28;20049;-73
2023/03/06 03:01:38;;;;;;;10.02;2.53;;;3.50;99.90;;;;;;5053808;28;20017;-73
2023/03/06 03:04:03;;;;;;;13.10;6.72;;;3.60;99.90;;;;;;5054829;28;20557;-73
2023/03/06 03:06:30;;;;;;;12.23;6.72;;;3.40;99.90;;;;;;5037503;28;20112;-73
2023/03/06 03:08:56;;;;;;;25.00;11.35;;;3.50;99.90;;;;;;5055059;28;20029;-73
2023/03/06 03:11:22;;;;;;;18.02;8.93;;;3.30;99.90;;;;;;5053833;28;20099;-72
2023/03/06 03:13:47;;;;;;;6.03;4.38;;;3.30;99.90;;;;;;5053767;28;20128;-72
2023/03/06 03:16:19;;;;;;;19.75;9.45;;;3.40;99.90;;;;;;5053730;28;20025;-73
2023/03/06 03:18:46;;;;;;;15.25;4.25;;;3.40;99.90;;;;;;5075813;28;20048;-73
2023/03/06 03:21:13;;;;;;;8.45;3.60;;;3.50;99.90;;;;;;5036724;28;20025;-73
2023/03/06 03:23:40;;;;;;;13.82;6.43;;;3.40;99.90;;;;;;5053692;28;20032;-72
2023/03/06 03:26:12;;;;;;;24.77;12.23;;;3.40;99.90;;;;;;5053286;28;20020;-72
2023/03/06 03:28:41;;;;;;;10.40;3.72;;;3.40;99.90;;;;;;5053646;28;20385;-72
2023/03/06 03:31:10;;;;;;;2.38;2.25;;;3.60;99.90;;;;;;5053134;28;20032;-73
2023/03/06 03:33:37;;;;;;;14.75;7.75;;;3.60;99.90;;;;;;5053149;28;20086;-74
2023/03/06 03:36:04;;;;;;;8.13;4.43;;;3.60;99.90;;;;;;5053272;28;20511;-74
2023/03/06 03:38:32;;;;;;;11.48;6.60;;;3.70;99.90;;;;;;5049134;28;20045;-74
2023/03/06 03:41:00;;;;;;;7.13;4.25;;;3.50;99.90;;;;;;5054598;28;20017;-74
2023/03/06 03:43:26;;;;;;;12.88;4.45;;;3.50;99.90;;;;;;5052970;28;20091;-73
2023/03/06 03:45:52;;;;;;;0.50;0.50;;;3.50;99.90;;;;;;5034621;28;20021;-73
2023/03/06 03:48:19;;;;;;;3.80;1.83;;;3.70;99.90;;;;;;5049410;28;20133;-73
2023/03/06 03:50:44;;;;;;;3.10;2.85;;;3.80;99.90;;;;;;5063855;28;20393;-73
2023/03/06 03:53:11;;;;;;;6.47;4.90;;;3.70;99.90;;;;;;5056889;28;20064;-73
2023/03/06 03:55:37;;;;;;;15.15;3.28;;;3.70;99.90;;;;;;5050754;28;20064;-73
2023/03/06 03:58:04;;;;;;;5.30;4.43;;;3.70;99.90;;;;;;5054330;28;20027;-73
2023/03/06 04:00:30;;;;;;;10.65;6.97;;;3.50;99.90;;;;;;5052710;28;20031;-73
2023/03/06 04:03:06;;;;;;;0.50;0.50;;;3.30;99.90;;;;;;5052635;28;20090;-73
2023/03/06 04:05:38;;;;;;;5.18;2.38;;;3.50;99.90;;;;;;5052830;28;20473;-73
2023/03/06 04:08:06;;;;;;;13.50;6.07;;;3.60;99.90;;;;;;5053908;28;20056;-73
2023/03/06 04:10:35;;;;;;;6.40;4.50;;;3.40;99.90;;;;;;5052933;28;20021;-73
2023/03/06 04:13:02;;;;;;;5.53;2.78;;;3.40;99.90;;;;;;5052546;28;20032;-73
2023/03/06 04:15:28;;;;;;;17.30;8.68;;;3.30;99.90;;;;;;5052671;28;20385;-73
2023/03/06 04:17:54;;;;;;;15.63;7.93;;;3.30;99.90;;;;;;5052151;28;20045;-73
2023/03/06 04:20:23;;;;;;;3.92;2.58;;;3.30;99.90;;;;;;5052304;28;20055;-72
2023/03/06 04:22:49;;;;;;;7.10;4.88;;;3.40;99.90;;;;;;5035655;28;20033;-73
2023/03/06 04:25:16;;;;;;;4.45;3.35;;;3.40;99.90;;;;;;5053612;28;20488;-73
2023/03/06 04:27:42;;;;;;;13.75;8.15;;;3.30;99.90;;;;;;5052303;28;20041;-73
2023/03/06 04:30:09;;;;;;;3.72;2.22;;;3.30;99.90;;;;;;5085828;28;20064;-74
2023/03/06 04:32:35;;;;;;;3.03;1.58;;;3.40;99.90;;;;;;5051935;28;20404;-74
2023/03/06 04:35:01;;;;;;;2.60;1.52;;;3.50;99.90;;;;;;5052027;28;20044;-74
2023/03/06 04:37:32;;;;;;;20.95;6.32;;;3.50;99.90;;;;;;5052191;28;20025;-74
2023/03/06 04:39:59;;;;;;;16.02;5.80;;;3.40;99.90;;;;;;5052088;28;20063;-74
2023/03/06 04:42:25;;;;;;;12.63;6.82;;;3.30;99.90;;;;;;5051409;28;20103;-73
2023/03/06 04:44:50;;;;;;;9.32;5.57;;;3.10;99.90;;;;;;5053272;28;20029;-73
2023/03/06 04:47:16;;;;;;;1.20;1.10;;;3.00;99.90;;;;;;5035075;28;20041;-72
2023/03/06 04:49:42;;;;;;;4.45;1.42;;;3.00;99.90;;;;;;5053192;28;20037;-73
2023/03/06 04:52:07;;;;;;;14.68;9.07;;;3.00;99.90;;;;;;5052935;28;20036;-73
2023/03/06 04:54:33;;;;;;;6.13;3.92;;;2.80;99.90;;;;;;5052894;28;20036;-72
2023/03/06 04:56:59;;;;;;;8.25;5.10;;;2.70;99.90;;;;;;5053050;28;20028;-73
2023/03/06 04:59:25;;;;;;;3.05;2.65;;;2.70;99.90;;;;;;5084783;28;20039;-73
2023/03/06 05:01:51;;;;;;;7.88;5.50;;;2.70;99.90;;;;;;5052849;28;20496;-73
2023/03/06 05:04:17;;;;;;;5.63;2.75;;;2.70;99.90;;;;;;5052639;28;20045;-73
2023/03/06 05:06:42;;;;;;;3.95;1.58;;;2.80;99.90;;;;;;5053038;28;20021;-73
2023/03/06 05:09:08;;;;;;;5.60;1.88;;;2.80;99.90;;;;;;5052396;28;20035;-73
2023/03/06 05:11:34;;;;;;;1.83;1.67;;;2.90;99.90;;;;;;5052688;28;20079;-72
2023/03/06 05:13:59;;;;;;;8.10;3.15;;;2.90;99.90;;;;;;5052860;28;20481;-74
2023/03/06 05:16:25;;;;;;;1.45;1.20;;;2.80;99.90;;;;;;5050954;28;20025;-72
2023/03/06 05:18:51;;;;;;;1.65;1.55;;;2.70;99.90;;;;;;5052625;28;20473;-74
2023/03/06 05:21:16;;;;;;;6.82;2.35;;;2.70;99.90;;;;;;5051131;28;20032;-73
2023/03/06 05:23:42;;;;;;;6.03;2.30;;;2.70;99.90;;;;;;5052562;28;20041;-72
2023/03/06 05:26:10;;;;;;;3.67;3.33;;;2.60;99.90;;;;;;5052490;28;20025;-73
2023/03/06 05:28:37;;;;;;;1.27;1.05;;;2.60;99.90;;;;;;5052745;28;20036;-73
2023/03/06 05:31:03;;;;;;;9.43;2.60;;;2.50;99.90;;;;;;5052246;28;20032;-73
2023/03/06 05:33:31;;;;;;;12.27;7.18;;;2.50;99.90;;;;;;5052499;28;20060;-72
2023/03/06 05:35:57;;;;;;;5.43;3.55;;;2.40;99.90;;;;;;5052276;28;20477;-72
2023/03/06 05:38:22;;;;;;;7.40;3.28;;;2.50;99.90;;;;;;5052103;28;20028;-73
2023/03/06 05:40:48;;;;;;;1.05;1.05;;;2.60;99.90;;;;;;5052558;28;20464;-73
2023/03/06 05:43:14;;;;;;;2.40;2.25;;;2.60;99.90;;;;;;5052472;28;20116;-73
2023/03/06 05:45:40;;;;;;;10.63;5.55;;;2.60;99.90;;;;;;5051803;28;20432;-72
2023/03/06 05:48:06;;;;;;;3.78;2.38;;;2.60;99.90;;;;;;5052123;28;20025;-73
2023/03/06 05:50:32;;;;;;;2.83;2.63;;;2.60;99.90;;;;;;5052195;28;20033;-73
2023/03/06 05:52:58;;;;;;;19.55;8.60;;;2.60;99.90;;;;;;5054256;28;20078;-73
2023/03/06 05:55:24;;;;;;;5.00;4.38;;;2.60;99.90;;;;;;5056164;28;20037;-73
2023/03/06 05:57:50;;;;;;;9.82;5.97;;;2.60;99.90;;;;;;5056233;28;20021;-72
2023/03/06 06:00:17;;;;;;;4.95;4.00;;;2.70;99.90;;;;;;5088601;28;20044;-72
2023/03/06 06:02:43;;;;;;;35.83;11.57;;;2.60;99.90;;;;;;5056349;28;20021;-72
2023/03/06 06:05:10;;;;;;;5.57;3.63;;;2.60;99.90;;;;;;5056380;28;20079;-73
2023/03/06 06:07:36;;;;;;;11.90;8.77;;;2.70;99.90;;;;;;5056106;28;20466;-73
2023/03/06 06:10:03;;;;;;;18.60;9.00;;;2.60;99.90;;;;;;5038380;28;20024;-73
2023/03/06 06:12:29;;;;;;;9.15;6.15;;;2.60;99.90;;;;;;5060840;28;20115;-73
2023/03/06 06:14:54;;;;;;;4.57;3.65;;;2.60;99.90;;;;;;5056053;28;20167;-73
2023/03/06 06:17:20;;;;;;;3.78;3.40;;;2.50;99.90;;;;;;5055220;28;20029;-73
2023/03/06 06:19:46;;;;;;;2.15;1.95;;;2.50;99.90;;;;;;5054515;28;20028;-72
2023/03/06 06:22:11;;;;;;;4.45;3.05;;;2.50;99.90;;;;;;5055528;28;20555;-73
2023/03/06 06:24:37;;;;;;;7.40;4.05;;;2.40;99.90;;;;;;5056023;28;20052;-73
2023/03/06 06:27:04;;;;;;;15.63;7.03;;;2.40;99.90;;;;;;5055599;28;20473;-74
2023/03/06 06:29:30;;;;;;;18.98;12.13;;;2.50;99.90;;;;;;5054418;28;20037;-73
2023/03/06 06:31:56;;;;;;;2.45;2.17;;;2.50;99.90;;;;;;5055863;28;20100;-72
2023/03/06 06:34:23;;;;;;;4.13;3.42;;;2.60;99.90;;;;;;5055804;28;20033;-74
2023/03/06 06:36:50;;;;;;;10.05;4.65;;;2.60;99.90;;;;;;5054353;28;20056;-73
2023/03/06 06:39:17;;;;;;;14.65;3.67;;;2.60;99.90;;;;;;5055500;28;20124;-73
2023/03/06 06:41:45;;;;;;;7.43;3.40;;;2.40;99.90;;;;;;5055319;28;20067;-74
2023/03/06 06:44:14;;;;;;;10.88;6.57;;;2.40;99.90;;;;;;5055623;28;20028;-73
2023/03/06 06:46:42;;;;;;;2.78;2.50;;;2.60;99.90;;;;;;5055644;28;20108;-74
2023/03/06 06:49:08;;;;;;;3.40;2.88;;;2.60;99.90;;;;;;5051754;28;20025;-73
2023/03/06 06:51:34;;;;;;;28.63;9.90;;;2.70;99.90;;;;;;5060393;28;20063;-73
2023/03/06 06:54:00;;;;;;;7.88;5.32;;;2.70;99.90;;;;;;5059249;28;20055;-73
2023/03/06 06:56:26;;;;;;;18.52;11.05;;;2.70;99.90;;;;;;5043891;28;20070;-73
2023/03/06 06:58:53;;;;;;;7.38;3.22;;;2.80;99.90;;;;;;5062758;28;20103;-73
2023/03/06 07:01:21;;;;;;;22.90;9.25;;;2.80;99.90;;;;;;5060729;28;20025;-73
2023/03/06 07:03:47;;;;;;;17.48;9.38;;;2.90;99.90;;;;;;5052971;28;20536;-73
2023/03/06 07:06:13;;;;;;;3.10;1.88;;;2.90;99.90;;;;;;5056266;28;20548;-73
2023/03/06 07:08:38;;;;;;;18.90;9.27;;;3.00;99.90;;;;;;5062143;28;20104;-75
2023/03/06 07:11:11;;;;;;;9.23;3.90;;;2.80;99.90;;;;;;5063815;28;20104;-74
2023/03/06 07:13:37;;;;;;;0.10;0.10;;;3.00;99.90;;;;;;5059699;28;20041;-73
2023/03/06 07:16:03;;;;;;;5.60;3.78;;;3.20;99.90;;;;;;5056808;28;20158;-74
2023/03/06 07:18:29;;;;;;;19.85;9.60;;;3.10;99.90;;;;;;5054698;28;20116;-74
2023/03/06 07:20:56;;;;;;;12.35;8.40;;;3.10;99.90;;;;;;5058105;28;20032;-74
2023/03/06 07:23:21;;;;;;;23.20;9.57;;;3.10;99.90;;;;;;5061136;28;20020;-74
2023/03/06 07:25:48;;;;;;;10.63;6.22;;;3.20;99.90;;;;;;5057626;28;20029;-73
2023/03/06 07:28:14;;;;;;;22.85;12.43;;;3.10;99.90;;;;;;5057515;28;20501;-73
2023/03/06 07:30:40;;;;;;;4.40;4.05;;;3.10;99.90;;;;;;5054450;28;20021;-73
2023/03/06 07:33:06;;;;;;;21.60;10.45;;;3.50;99.90;;;;;;5062251;28;20025;-74
2023/03/06 07:35:32;;;;;;;0.82;0.80;;;3.50;99.90;;;;;;5055848;28;20044;-74
2023/03/06 07:37:58;;;;;;;0.30;0.30;;;3.70;99.90;;;;;;5041902;28;20032;-74
2023/03/06 07:40:24;;;;;;;2.17;1.45;;;3.70;99.90;;;;;;5058901;28;20032;-74
2023/03/06 07:42:53;;;;;;;19.85;8.40;;;3.60;99.90;;;;;;5053934;28;20373;-74
2023/03/06 07:45:23;;;;;;;2.47;2.28;;;3.80;99.90;;;;;;5064296;28;20020;-74
2023/03/06 07:47:50;;;;;;;5.10;1.95;;;3.70;99.90;;;;;;5064527;28;20021;-73
2023/03/06 07:50:17;;;;;;;11.70;5.97;;;3.90;99.90;;;;;;5050171;28;20068;-73
2023/03/06 07:52:43;;;;;;;7.03;4.03;;;3.80;99.90;;;;;;5052600;28;20029;-74
2023/03/06 07:55:10;;;;;;;1.52;1.42;;;3.80;99.90;;;;;;5063572;28;20043;-73
2023/03/06 07:57:36;;;;;;;18.90;7.30;;;3.80;99.90;;;;;;5061792;28;20020;-73
2023/03/06 08:00:12;;;;;;;15.95;5.78;;;3.70;99.90;;;;;;5060839;28;20100;-75
2023/03/06 08:02:41;;;;;;;33.30;12.68;;;3.70;99.90;;;;;;5053147;28;20013;-72
2023/03/06 08:05:11;;;;;;;7.50;4.90;;;3.80;99.90;;;;;;5050440;28;20051;-74
2023/03/06 08:07:37;;;;;;;25.75;10.40;;;3.80;99.90;;;;;;5059888;28;20029;-74
2023/03/06 08:10:03;;;;;;;13.45;8.30;;;3.80;99.90;;;;;;5063488;28;20077;-72
2023/03/06 08:12:29;;;;;;;7.30;4.97;;;3.80;99.90;;;;;;5057166;28;20029;-73
2023/03/06 08:14:55;;;;;;;6.05;3.30;;;3.80;99.90;;;;;;5048662;28;20481;-73
2023/03/06 08:17:21;;;;;;;6.40;4.18;;;4.00;99.90;;;;;;5052664;28;20021;-73
2023/03/06 08:19:46;;;;;;;15.75;9.02;;;4.10;99.90;;;;;;5056377;28;20025;-74
2023/03/06 08:22:13;;;;;;;4.97;3.80;;;4.10;99.90;;;;;;5061301;28;20062;-73
2023/03/06 08:24:38;;;;;;;14.23;5.82;;;4.20;99.90;;;;;;5053166;28;20422;-73
2023/03/06 08:27:04;;;;;;;19.40;7.68;;;4.10;99.90;;;;;;5053266;28;20159;-74
2023/03/06 08:29:30;;;;;;;13.38;6.65;;;4.30;99.90;;;;;;5063427;28;20025;-74
2023/03/06 08:31:56;;;;;;;10.38;6.47;;;4.20;99.90;;;;;;5093716;28;20102;-72
2023/03/06 08:34:25;;;;;;;3.95;3.15;;;4.20;99.90;;;;;;5035675;28;20045;-73
2023/03/06 08:36:51;;;;;;;21.85;8.45;;;4.20;99.90;;;;;;5052959;28;20066;-73
2023/03/06 08:39:17;;;;;;;30.70;17.88;;;4.20;99.90;;;;;;5052985;28;20032;-73
2023/03/06 08:41:43;;;;;;;17.38;11.13;;;4.10;99.90;;;;;;5053171;28;20543;-73
2023/03/06 08:44:09;;;;;;;7.28;4.15;;;4.20;99.90;;;;;;5052167;28;20489;-72
2023/03/06 08:46:35;;;;;;;6.55;3.30;;;4.40;99.90;;;;;;5052137;28;20056;-74
2023/03/06 08:49:01;;;;;;;20.33;9.30;;;4.50;99.90;;;;;;5052914;28;20036;-73
2023/03/06 08:51:27;;;;;;;22.73;8.68;;;4.40;99.90;;;;;;5053107;28;20017;-73
2023/03/06 08:53:56;;;;;;;20.08;12.18;;;4.40;99.90;;;;;;5050921;28;20078;-72
2023/03/06 08:56:31;;;;;;;3.65;3.08;;;4.40;99.90;;;;;;5058462;28;20035;-71
2023/03/06 08:58:58;;;;;;;24.08;14.02;;;4.60;99.90;;;;;;5058978;28;20170;-72
2023/03/06 09:01:26;;;;;;;16.77;9.38;;;4.60;99.90;;;;;;5057313;28;20039;-73
2023/03/06 09:03:54;;;;;;;14.50;8.60;;;4.60;99.90;;;;;;5046778;28;20024;-71
2023/03/06 09:06:21;;;;;;;13.45;8.07;;;4.50;99.90;;;;;;5043128;28;20021;-72
2023/03/06 09:08:49;;;;;;;23.88;11.07;;;4.60;99.90;;;;;;5040279;28;20109;-72
2023/03/06 09:11:15;;;;;;;13.18;7.25;;;4.70;99.90;;;;;;5054317;28;20500;-72
2023/03/06 09:13:41;;;;;;;41.42;20.48;;;4.60;99.90;;;;;;5055377;28;20127;-72
2023/03/06 09:16:08;;;;;;;7.93;4.85;;;4.50;99.90;;;;;;5056560;28;20009;-72
2023/03/06 09:18:34;;;;;;;4.82;3.78;;;4.60;99.90;;;;;;5060159;28;20480;-73
2023/03/06 09:21:00;;;;;;;6.80;5.18;;;4.80;99.90;;;;;;5057580;28;20028;-72
2023/03/06 09:23:25;;;;;;;14.13;8.68;;;4.70;99.90;;;;;;5054964;28;20029;-73
2023/03/06 09:25:52;;;;;;;13.57;6.32;;;4.90;99.90;;;;;;5055422;28;20103;-72
2023/03/06 09:28:18;;;;;;;11.40;7.80;;;4.90;99.90;;;;;;5052899;28;20470;-72
2023/03/06 09:30:44;;;;;;;20.35;7.63;;;5.00;99.90;;;;;;5059316;28;20035;-72
2023/03/06 09:33:10;;;;;;;10.27;5.60;;;5.00;99.90;;;;;;5057132;28;20021;-72
2023/03/06 09:35:46;;;;;;;8.95;5.93;;;5.10;99.90;;;;;;5054272;28;20487;-72
2023/03/06 09:38:11;;;;;;;6.43;2.83;;;5.10;99.90;;;;;;5089904;28;20028;-71
2023/03/06 09:41:06;;;;;;;15.80;7.13;;;5.20;99.90;;;;;;5055296;28;20020;-72
2023/03/06 09:43:43;;;;;;;12.35;6.45;;;5.40;99.90;;;;;;5053086;28;20519;-72
2023/03/06 09:46:23;;;;;;;0.10;0.10;;;5.60;99.90;;;;;;5067268;28;20039;-72
2023/03/06 09:49:19;;;;;;;14.38;8.38;;;5.90;99.90;;;;;;5063285;28;20039;-71
2023/03/06 09:51:54;;;;;;;10.88;2.80;;;5.70;99.90;;;;;;5059251;28;20485;-72
2023/03/06 09:54:30;;;;;;;12.38;4.90;;;5.70;99.90;;;;;;5030260;28;20049;-73
2023/03/06 09:56:56;;;;;;;6.93;4.80;;;5.60;99.90;;;;;;5063458;28;20067;-73
2023/03/06 09:59:26;;;;;;;16.00;8.02;;;5.70;99.90;;;;;;5062440;28;20073;-77
2023/03/06 10:01:57;;;;;;;3.55;2.58;;;5.70;99.90;;;;;;5062509;28;20396;-72
2023/03/06 10:04:44;;;;;;;8.57;2.85;;;5.80;99.90;;;;;;5055102;28;20063;-73
2023/03/06 10:07:19;;;;;;;3.28;2.00;;;5.90;99.90;;;;;;5051487;28;20057;-72
2023/03/06 10:10:01;;;;;;;11.95;4.32;;;6.10;99.90;;;;;;5065575;28;20029;-72
2023/03/06 10:12:47;;;;;;;;;;;6.30;99.90;;;;;;5063414;28;20032;-73
2023/03/06 10:15:15;;;;;;;10.52;2.90;;;6.60;99.90;;;;;;5055823;28;20007;-72
2023/03/06 10:17:42;;;;;;;11.43;8.57;;;6.50;99.90;;;;;;5048716;28;20026;-72
2023/03/06 10:20:38;;;;;;;4.25;3.17;;;6.50;99.90;;;;;;5056504;28;20036;-72
2023/03/06 10:23:23;;;;;;;8.40;5.97;;;6.40;99.90;;;;;;5047609;28;20033;-72
2023/03/06 10:25:53;;;;;;;1.48;1.30;;;6.50;99.90;;;;;;5055259;28;20078;-72
2023/03/06 10:28:29;;;;;;;20.80;7.50;;;6.90;99.90;;;;;;5034958;28;20021;-73
2023/03/06 10:31:15;;;;;;;22.08;8.15;;;6.80;99.90;;;;;;5056735;28;20041;-72
2023/03/06 10:33:52;;;;;;;13.88;7.28;;;6.80;99.90;;;;;;5058349;28;20385;-72
2023/03/06 10:36:19;;;;;;;12.68;7.18;;;6.70;99.90;;;;;;5046920;28;20029;-73
2023/03/06 10:38:47;;;;;;;11.77;6.43;;;6.60;99.90;;;;;;5057805;28;20029;-72
2023/03/06 10:41:13;;;;;;;12.75;6.60;;;6.60;99.90;;;;;;5057915;28;20049;-82
2023/03/06 10:43:41;;;;;;;10.35;5.72;;;6.50;99.90;;;;;;5056322;28;20058;-73
2023/03/06 10:46:08;;;;;;;13.13;4.65;;;6.60;99.90;;;;;;5058858;28;20020;-73
2023/03/06 10:48:36;;;;;;;6.57;3.15;;;6.50;99.90;;;;;;5085328;28;20033;-73
2023/03/06 10:51:20;;;;;;;20.90;7.30;;;6.80;99.90;;;;;;5059850;28;20025;-73
2023/03/06 10:54:17;;;;;;;9.77;5.22;;;6.90;99.90;;;;;;5058792;28;20064;-73
2023/03/06 10:56:45;;;;;;;7.95;4.68;;;6.80;99.90;;;;;;5059104;28;20013;-73
2023/03/06 10:59:15;;;;;;;6.15;4.07;;;7.00;99.90;;;;;;5056650;28;20079;-73
2023/03/06 11:01:47;;;;;;;11.30;6.25;;;7.10;99.90;;;;;;5063451;28;20029;-73
2023/03/06 11:04:31;;;;;;;15.75;3.15;;;7.00;99.90;;;;;;5058354;28;20076;-72
2023/03/06 11:07:30;;;;;;;7.40;4.28;;;7.20;99.90;;;;;;5054346;28;20033;-73
2023/03/06 11:09:56;;;;;;;12.80;5.20;;;7.80;99.90;;;;;;5046521;28;20046;-73
2023/03/06 11:12:26;;;;;;;5.03;3.83;;;8.20;99.90;;;;;;5057027;28;20096;-74
2023/03/06 11:15:31;;;;;;;9.40;5.95;;;8.50;99.90;;;;;;5053482;28;20124;-73
2023/03/06 11:18:07;;;;;;;3.03;1.73;;;8.70;99.90;;;;;;5052304;28;20091;-74
2023/03/06 11:20:43;;;;;;;12.07;5.80;;;8.50;99.90;;;;;;5053582;28;20039;-73
2023/03/06 11:23:19;;;;;;;7.75;4.80;;;8.00;99.90;;;;;;5053618;28;20393;-74
2023/03/06 11:26:02;;;;;;;6.95;4.18;;;8.20;99.90;;;;;;5058942;28;20415;-74
2023/03/06 11:28:31;;;;;;;13.93;5.25;;;8.40;99.90;;;;;;5040190;28;20089;-74
2023/03/06 11:31:28;;;;;;;8.90;2.67;;;8.30;99.90;;;;;;5062301;28;20111;-74
2023/03/06 11:34:19;;;;;;;1.15;0.82;;;8.10;99.90;;;;;;5037138;28;20515;-74
2023/03/06 11:36:57;;;;;;;9.15;4.28;;;8.70;99.90;;;;;;5053126;28;20025;-74
2023/03/06 11:39:44;;;;;;;5.00;2.85;;;9.60;99.90;;;;;;5054184;28;20044;-74
2023/03/06 11:42:10;;;;;;;6.68;5.22;;;9.60;99.90;;;;;;5052896;28;20025;-75
2023/03/06 11:45:09;;;;;;;10.57;6.05;;;8.80;99.90;;;;;;5054029;28;20067;-75
2023/03/06 11:48:00;;;;;;;6.47;3.88;;;8.20;99.90;;;;;;5077625;28;20139;-75
2023/03/06 11:50:40;;;;;;;8.05;4.95;;;8.90;99.90;;;;;;5054028;28;20025;-75
2023/03/06 11:53:13;;;;;;;20.83;8.88;;;8.50;99.90;;;;;;5054143;28;20366;-75
2023/03/06 11:55:52;;;;;;;5.00;4.30;;;8.80;99.90;;;;;;5054062;28;20068;-75
2023/03/06 11:58:39;;;;;;;10.15;4.93;;;9.60;99.90;;;;;;5052802;28;20025;-75
2023/03/06 12:01:17;;;;;;;1.25;1.10;;;9.70;99.90;;;;;;5053663;28;20036;-75
2023/03/06 12:03:46;;;;;;;14.52;7.25;;;9.40;99.90;;;;;;5053952;28;20036;-75
2023/03/06 12:06:42;;;;;;;15.80;5.15;;;9.50;99.90;;;;;;5052470;28;20086;-75
2023/03/06 12:09:11;;;;;;;13.68;4.82;;;9.50;99.90;;;;;;5053797;28;20033;-75
2023/03/06 12:11:58;;;;;;;12.10;6.90;;;9.20;99.90;;;;;;5052830;28;20107;-76
2023/03/06 12:14:43;;;;;;;3.67;3.10;;;9.10;99.90;;;;;;5052328;28;20040;-75
2023/03/06 12:17:31;;;;;;;5.13;4.35;;;9.20;99.90;;;;;;5053701;28;20025;-75
2023/03/06 12:20:06;;;;;;;20.30;6.07;;;9.10;99.90;;;;;;5053654;28;20428;-75
2023/03/06 12:22:37;;;;;;;14.00;5.88;;;9.20;99.90;;;;;;5053380;28;20059;-75
2023/03/06 12:25:24;;;;;;;4.50;3.08;;;9.60;99.90;;;;;;5035875;28;20039;-76
2023/03/06 12:28:30;;;;;;;8.15;3.53;;;9.30;99.90;;;;;;5035629;28;20465;-75
2023/03/06 12:31:24;;;;;;;3.13;1.67;;;9.40;99.90;;;;;;5057806;28;20041;-75
2023/03/06 12:34:08;;;;;;;10.40;5.50;;;9.30;99.90;;;;;;5041320;28;20040;-75
2023/03/06 12:36:59;;;;;;;7.65;3.85;;;8.40;99.90;;;;;;5053412;28;20146;-75
2023/03/06 12:40:05;;;;;;;5.53;2.47;;;8.30;99.90;;;;;;5054586;28;20042;-75
2023/03/06 12:42:31;;;;;;;5.32;3.78;;;8.70;99.90;;;;;;5052209;28;20124;-75
2023/03/06 12:45:12;;;;;;;7.85;3.25;;;8.70;99.90;;;;;;5077972;28;20121;-74
2023/03/06 12:47:43;;;;;;;15.98;6.22;;;8.80;99.90;;;;;;5053289;28;20037;-76
2023/03/06 12:50:26;;;;;;;14.00;6.22;;;8.70;99.90;;;;;;5053636;28;20074;-75
2023/03/06 12:52:54;;;;;;;15.15;5.65;;;8.40;99.90;;;;;;5053374;28;20420;-75
2023/03/06 12:55:21;;;;;;;7.57;3.72;;;8.70;99.90;;;;;;5052827;28;20037;-75
2023/03/06 12:57:47;;;;;;;8.70;3.15;;;8.90;99.90;;;;;;5053390;28;20025;-75
2023/03/06 13:00:40;;;;;;;16.67;5.70;;;8.80;99.90;;;;;;5052921;28;20025;-75
2023/03/06 13:03:43;;;;;;;15.00;6.50;;;8.90;99.90;;;;;;5042697;28;20041;-75
2023/03/06 13:06:38;;;;;;;7.88;3.67;;;9.20;99.90;;;;;;5037318;28;20047;-75
2023/03/06 13:09:13;;;;;;;8.13;4.65;;;9.20;99.90;;;;;;5052931;28;20025;-75